createdAt,value
2019-02-15T00:00:35.734Z,99.90
2019-02-15T00:03:06.520Z,99.90
2019-02-15T00:05:35.372Z,99.90
2019-02-15T00:08:05.103Z,99.90
2019-02-15T00:10:34.226Z,99.90
2019-02-15T00:13:03.055Z,99.90
2019-02-15T00:15:31.975Z,99.90
2019-02-15T00:18:20.163Z,99.90
2019-02-15T00:20:56.815Z,99.90
2019-02-15T00:23:25.845Z,99.90
2019-02-15T00:25:55.274Z,99.90
2019-02-15T00:28:24.356Z,99.90
2019-02-15T00:30:53.360Z,99.90
2019-02-15T00:33:22.363Z,99.90
2019-02-15T00:35:51.415Z,99.90
2019-02-15T00:38:20.298Z,99.90
2019-02-15T00:40:49.323Z,99.90
2019-02-15T00:43:22.344Z,99.90
2019-02-15T00:46:00.868Z,99.90
2019-02-15T00:48:29.874Z,99.90
2019-02-15T00:51:23.988Z,99.90
2019-02-15T00:54:04.400Z,99.90
2019-02-15T00:56:47.289Z,99.90
2019-02-15T00:59:33.956Z,99.90
2019-02-15T01:02:20.943Z,99.90
2019-02-15T01:05:07.565Z,99.90
2019-02-15T01:07:55.749Z,99.90
2019-02-15T01:10:32.744Z,99.90
2019-02-15T01:13:06.144Z,99.90
2019-02-15T01:15:35.134Z,99.90
2019-02-15T01:18:03.981Z,99.90
2019-02-15T01:20:32.841Z,99.90
2019-02-15T01:23:01.669Z,99.90
2019-02-15T01:25:35.586Z,99.90
2019-02-15T01:28:16.514Z,99.90
2019-02-15T01:30:56.221Z,99.90
2019-02-15T01:33:32.477Z,99.90
2019-02-15T01:36:25.916Z,99.90
2019-02-15T01:39:16.711Z,99.90
2019-02-15T01:42:06.546Z,99.90
2019-02-15T01:44:43.928Z,99.90
2019-02-15T01:47:23.126Z,99.90
2019-02-15T01:49:52.575Z,99.90
2019-02-15T01:52:21.520Z,99.90
2019-02-15T01:54:50.546Z,99.90
2019-02-15T01:57:19.653Z,99.90
2019-02-15T01:59:48.507Z,99.90
2019-02-15T02:02:17.513Z,99.90
2019-02-15T02:04:46.383Z,99.90
2019-02-15T02:07:15.354Z,99.90
2019-02-15T02:09:44.409Z,99.90
2019-02-15T02:12:13.755Z,99.90
2019-02-15T02:14:42.562Z,99.90
2019-02-15T02:17:11.597Z,99.90
2019-02-15T02:19:40.571Z,99.90
2019-02-15T02:22:09.454Z,99.90
2019-02-15T02:24:38.385Z,99.90
2019-02-15T02:27:07.358Z,99.90
2019-02-15T02:29:36.333Z,99.90
2019-02-15T02:32:05.430Z,99.90
2019-02-15T02:34:34.338Z,99.90
2019-02-15T02:37:03.341Z,99.90
2019-02-15T02:39:32.376Z,99.90
2019-02-15T02:42:01.360Z,99.90
2019-02-15T02:44:30.385Z,99.90
2019-02-15T02:46:59.259Z,99.90
2019-02-15T02:49:28.107Z,99.90
2019-02-15T02:51:57.269Z,99.90
2019-02-15T02:54:26.176Z,99.90
2019-02-15T02:56:55.004Z,99.90
2019-02-15T02:59:24.149Z,99.90
2019-02-15T03:01:53.105Z,99.90
2019-02-15T03:04:22.031Z,99.90
2019-02-15T03:06:50.949Z,99.90
2019-02-15T03:09:19.863Z,99.90
2019-02-15T03:11:48.843Z,99.90
2019-02-15T03:14:17.870Z,99.90
2019-02-15T03:16:46.789Z,99.90
2019-02-15T03:19:15.814Z,99.90
2019-02-15T03:21:44.754Z,99.90
2019-02-15T03:24:13.688Z,99.90
2019-02-15T03:26:42.505Z,99.90
2019-02-15T03:29:11.519Z,99.90
2019-02-15T03:31:40.479Z,99.90
2019-02-15T03:34:09.525Z,99.90
2019-02-15T03:36:55.169Z,99.90
2019-02-15T03:39:36.795Z,99.90
2019-02-15T03:42:05.821Z,99.90
2019-02-15T03:44:34.852Z,99.90
2019-02-15T03:47:03.672Z,99.90
2019-02-15T03:49:35.378Z,99.90
2019-02-15T03:52:04.323Z,99.90
2019-02-15T03:54:33.323Z,99.90
2019-02-15T03:57:02.156Z,99.90
2019-02-15T03:59:31.162Z,99.90
2019-02-15T04:02:00.093Z,99.90
2019-02-15T04:04:29.185Z,99.90
2019-02-15T04:07:01.197Z,99.90
2019-02-15T04:09:30.129Z,99.90
2019-02-15T04:11:59.185Z,99.90
2019-02-15T04:14:32.805Z,99.90
2019-02-15T04:16:58.692Z,99.90
2019-02-15T04:19:27.518Z,99.90
2019-02-15T04:21:56.939Z,99.90
2019-02-15T04:24:25.793Z,99.90
2019-02-15T04:26:54.844Z,99.90
2019-02-15T04:29:23.826Z,99.90
2019-02-15T04:31:52.732Z,99.90
2019-02-15T04:34:21.646Z,99.90
2019-02-15T04:36:50.636Z,99.90
2019-02-15T04:39:19.652Z,99.90
2019-02-15T04:41:48.738Z,99.90
2019-02-15T04:44:17.674Z,99.90
2019-02-15T04:46:46.550Z,99.90
2019-02-15T04:49:15.437Z,99.90
2019-02-15T04:51:44.393Z,99.90
2019-02-15T04:54:13.487Z,99.90
2019-02-15T04:56:42.434Z,99.90
2019-02-15T04:59:11.306Z,99.90
2019-02-15T05:01:40.242Z,99.90
2019-02-15T05:04:09.214Z,99.90
2019-02-15T05:06:37.993Z,99.90
2019-02-15T05:09:06.949Z,99.90
2019-02-15T05:11:35.958Z,99.90
2019-02-15T05:14:04.844Z,99.90
2019-02-15T05:16:33.742Z,99.90
2019-02-15T05:19:02.748Z,99.90
2019-02-15T05:21:31.692Z,99.90
2019-02-15T05:24:00.648Z,99.90
2019-02-15T05:26:29.614Z,99.90
2019-02-15T05:28:58.516Z,99.90
2019-02-15T05:31:27.443Z,99.90
2019-02-15T05:33:56.403Z,99.90
2019-02-15T05:36:25.388Z,99.90
2019-02-15T05:38:54.437Z,99.90
2019-02-15T05:41:23.483Z,99.90
2019-02-15T05:43:53.152Z,99.90
2019-02-15T05:46:22.052Z,99.90
2019-02-15T05:48:56.768Z,99.90
2019-02-15T05:51:26.051Z,99.90
2019-02-15T05:53:55.029Z,99.90
2019-02-15T05:56:23.972Z,99.90
2019-02-15T05:58:53.053Z,99.90
2019-02-15T06:01:23.436Z,99.90
2019-02-15T06:03:52.267Z,99.90
2019-02-15T06:06:21.147Z,99.90
2019-02-15T06:08:50.187Z,99.90
2019-02-15T06:11:19.113Z,99.90
2019-02-15T06:13:48.062Z,99.90
2019-02-15T06:16:17.113Z,99.90
2019-02-15T06:18:46.103Z,99.90
2019-02-15T06:21:20.408Z,99.90
2019-02-15T06:23:49.228Z,99.90
2019-02-15T06:26:18.234Z,99.90
2019-02-15T06:28:47.274Z,99.90
2019-02-15T06:31:16.327Z,99.90
2019-02-15T06:33:45.483Z,99.90
2019-02-15T06:36:14.720Z,99.90
2019-02-15T06:38:43.685Z,99.90
2019-02-15T06:41:12.746Z,99.90
2019-02-15T06:43:41.820Z,99.90
2019-02-15T06:46:10.876Z,99.90
2019-02-15T06:48:39.938Z,99.90
2019-02-15T06:51:08.984Z,99.90
2019-02-15T06:53:37.832Z,99.90
2019-02-15T06:56:06.810Z,99.90
2019-02-15T06:58:45.487Z,99.90
2019-02-15T07:01:24.344Z,99.90
2019-02-15T07:04:18.255Z,99.90
2019-02-15T07:06:47.191Z,99.90
2019-02-15T07:09:16.488Z,99.90
2019-02-15T07:11:45.757Z,99.90
2019-02-15T07:14:14.735Z,99.90
2019-02-15T07:16:43.783Z,99.90
2019-02-15T07:19:12.674Z,99.90
2019-02-15T07:21:41.964Z,99.90
2019-02-15T07:24:11.181Z,99.90
2019-02-15T07:26:40.398Z,99.90
2019-02-15T07:29:09.365Z,99.90
2019-02-15T07:31:38.288Z,99.90
2019-02-15T07:34:07.270Z,99.90
2019-02-15T07:36:36.319Z,99.90
2019-02-15T07:39:06.425Z,99.90
2019-02-15T07:41:35.300Z,99.90
2019-02-15T07:44:04.614Z,99.90
2019-02-15T07:46:33.505Z,99.90
2019-02-15T07:49:02.505Z,99.90
2019-02-15T07:51:31.469Z,99.90
2019-02-15T07:54:00.595Z,99.90
2019-02-15T07:56:29.679Z,99.90
2019-02-15T07:58:58.591Z,99.90
2019-02-15T08:01:27.664Z,99.90
2019-02-15T08:03:57.139Z,99.90
2019-02-15T08:06:26.138Z,99.90
2019-02-15T08:08:54.913Z,99.90
2019-02-15T08:11:23.864Z,99.90
2019-02-15T08:13:53.006Z,99.90
2019-02-15T08:16:21.985Z,99.90
2019-02-15T08:18:50.898Z,99.90
2019-02-15T08:21:19.923Z,99.90
2019-02-15T08:23:49.285Z,99.90
2019-02-15T08:26:18.213Z,99.90
2019-02-15T08:28:47.102Z,99.90
2019-02-15T08:31:16.362Z,99.90
2019-02-15T08:33:45.599Z,99.90
2019-02-15T08:36:14.799Z,99.90
2019-02-15T08:38:45.734Z,99.90
2019-02-15T08:41:14.441Z,99.90
2019-02-15T08:43:43.812Z,99.90
2019-02-15T08:46:12.779Z,99.90
2019-02-15T08:48:46.185Z,99.90
2019-02-15T08:51:12.931Z,99.90
2019-02-15T08:53:41.934Z,99.90
2019-02-15T08:56:10.818Z,99.90
2019-02-15T08:58:39.808Z,99.90
2019-02-15T09:01:08.798Z,99.90
2019-02-15T09:03:37.896Z,99.90
2019-02-15T09:06:10.827Z,99.90
2019-02-15T09:08:43.112Z,99.90
2019-02-15T09:11:12.080Z,99.90
2019-02-15T09:13:40.979Z,99.90
2019-02-15T09:16:10.638Z,99.90
2019-02-15T09:18:39.666Z,99.90
2019-02-15T09:21:08.629Z,99.90
2019-02-15T09:23:37.483Z,99.90
2019-02-15T09:26:06.451Z,99.90
2019-02-15T09:28:42.722Z,99.90
2019-02-15T09:31:12.069Z,99.90
2019-02-15T09:33:41.117Z,99.90
2019-02-15T09:36:10.027Z,99.90
2019-02-15T09:38:38.950Z,99.90
2019-02-15T09:41:07.860Z,99.90
2019-02-15T09:43:36.780Z,99.90
2019-02-15T09:46:05.829Z,99.90
2019-02-15T09:48:34.709Z,99.90
2019-02-15T09:51:03.610Z,99.90
2019-02-15T09:53:32.408Z,99.90
2019-02-15T09:56:01.383Z,99.90
2019-02-15T09:58:30.410Z,99.90
2019-02-15T10:00:59.447Z,99.90
2019-02-15T10:03:28.487Z,99.90
2019-02-15T10:05:57.740Z,99.90
2019-02-15T10:08:26.713Z,99.90
2019-02-15T10:10:55.824Z,99.90
2019-02-15T10:13:24.650Z,99.90
2019-02-15T10:15:53.668Z,99.90
2019-02-15T10:18:22.565Z,99.90
2019-02-15T10:20:51.487Z,99.90
2019-02-15T10:23:20.500Z,99.90
2019-02-15T10:25:49.329Z,99.90
2019-02-15T10:28:18.364Z,99.50
2019-02-15T10:30:47.341Z,99.10
2019-02-15T10:33:16.565Z,98.30
2019-02-15T10:35:45.545Z,95.40
2019-02-15T10:38:14.418Z,91.70
2019-02-15T10:40:43.530Z,77.00
2019-02-15T10:43:12.427Z,64.60
2019-02-15T10:45:41.410Z,57.40
2019-02-15T10:48:10.837Z,53.40
2019-02-15T10:50:39.980Z,46.30
2019-02-15T10:53:10.564Z,44.30
2019-02-15T10:55:39.557Z,39.00
2019-02-15T10:58:08.484Z,39.30
2019-02-15T11:00:37.673Z,35.70
2019-02-15T11:03:06.670Z,33.30
2019-02-15T11:05:35.636Z,33.20
2019-02-15T11:08:06.367Z,32.80
2019-02-15T11:10:35.273Z,31.60
2019-02-15T11:13:04.366Z,31.30
2019-02-15T11:15:33.242Z,30.40
2019-02-15T11:18:02.252Z,29.80
2019-02-15T11:20:31.215Z,29.50
2019-02-15T11:23:00.124Z,28.90
2019-02-15T11:25:28.929Z,29.10
2019-02-15T11:27:57.887Z,29.10
2019-02-15T11:30:26.708Z,28.00
2019-02-15T11:32:55.621Z,26.30
2019-02-15T11:35:24.923Z,26.80
2019-02-15T11:37:53.880Z,26.30
2019-02-15T11:40:23.108Z,25.90
2019-02-15T11:42:52.118Z,24.60
2019-02-15T11:45:32.236Z,24.70
2019-02-15T11:48:01.163Z,23.70
2019-02-15T11:50:30.152Z,23.20
2019-02-15T11:52:59.247Z,22.40
2019-02-15T11:55:28.327Z,22.70
2019-02-15T11:58:03.400Z,21.80
2019-02-15T12:00:32.238Z,22.30
2019-02-15T12:03:34.176Z,22.40
2019-02-15T12:06:03.920Z,22.10
2019-02-15T12:08:36.063Z,21.30
2019-02-15T12:11:05.325Z,20.60
2019-02-15T12:13:34.165Z,21.10
2019-02-15T12:16:02.974Z,19.90
2019-02-15T12:18:31.952Z,19.60
2019-02-15T12:21:00.987Z,19.90
2019-02-15T12:23:29.864Z,21.10
2019-02-15T12:25:58.862Z,22.40
2019-02-15T12:28:30.625Z,25.00
2019-02-15T12:30:59.344Z,25.70
2019-02-15T12:33:28.375Z,27.00
2019-02-15T12:35:57.341Z,27.60
2019-02-15T12:38:26.450Z,28.00
2019-02-15T12:40:55.327Z,28.10
2019-02-15T12:43:24.342Z,29.10
2019-02-15T12:45:53.360Z,29.30
2019-02-15T12:48:22.377Z,29.40
2019-02-15T12:50:51.220Z,29.50
2019-02-15T12:53:20.196Z,29.70
2019-02-15T12:55:49.205Z,30.20
2019-02-15T12:58:18.308Z,30.40
2019-02-15T13:00:47.197Z,30.60
2019-02-15T13:03:16.329Z,30.60
2019-02-15T13:05:45.370Z,30.80
2019-02-15T13:08:14.537Z,30.70
2019-02-15T13:10:43.811Z,30.60
2019-02-15T13:13:12.890Z,30.80
2019-02-15T13:15:48.478Z,31.40
2019-02-15T13:18:17.644Z,30.90
2019-02-15T13:20:46.539Z,30.90
2019-02-15T13:23:15.451Z,31.50
2019-02-15T13:25:44.302Z,32.60
2019-02-15T13:28:14.651Z,32.90
2019-02-15T13:30:46.359Z,32.80
2019-02-15T13:33:15.285Z,32.70
2019-02-15T13:35:44.299Z,32.50
2019-02-15T13:38:13.201Z,33.00
2019-02-15T13:41:01.303Z,33.50
2019-02-15T13:43:30.367Z,33.00
2019-02-15T13:45:59.273Z,33.30
2019-02-15T13:48:28.102Z,33.80
2019-02-15T13:50:56.989Z,33.50
2019-02-15T13:53:25.965Z,33.80
2019-02-15T13:55:55.011Z,33.30
2019-02-15T13:58:24.524Z,32.50
2019-02-15T14:00:53.544Z,30.20
2019-02-15T14:03:22.561Z,29.30
2019-02-15T14:05:51.430Z,29.10
2019-02-15T14:08:20.343Z,29.00
2019-02-15T14:10:49.342Z,29.40
2019-02-15T14:13:18.426Z,29.10
2019-02-15T14:15:49.367Z,29.70
2019-02-15T14:18:20.042Z,30.50
2019-02-15T14:20:49.127Z,30.50
2019-02-15T14:23:18.027Z,30.30
2019-02-15T14:25:47.176Z,31.00
2019-02-15T14:28:16.358Z,31.80
2019-02-15T14:30:45.479Z,32.30
2019-02-15T14:33:14.363Z,32.30
2019-02-15T14:35:43.746Z,33.50
2019-02-15T14:38:12.688Z,33.00
2019-02-15T14:40:41.606Z,33.20
2019-02-15T14:43:10.776Z,33.00
2019-02-15T14:45:39.933Z,33.70
2019-02-15T14:48:09.075Z,33.20
2019-02-15T14:50:38.054Z,33.20
2019-02-15T14:53:06.972Z,34.00
2019-02-15T14:55:36.108Z,33.70
2019-02-15T14:58:05.116Z,33.60
2019-02-15T15:00:34.059Z,33.60
2019-02-15T15:03:03.093Z,33.10
2019-02-15T15:05:32.107Z,32.90
2019-02-15T15:08:01.206Z,31.70
2019-02-15T15:10:37.683Z,31.80
2019-02-15T15:13:06.883Z,32.30
2019-02-15T15:15:35.926Z,31.70
2019-02-15T15:18:12.653Z,31.70
2019-02-15T15:20:35.583Z,32.20
2019-02-15T15:23:04.618Z,30.70
2019-02-15T15:25:33.554Z,30.90
2019-02-15T15:28:02.539Z,31.30
2019-02-15T15:30:31.614Z,32.30
2019-02-15T15:33:00.637Z,31.50
2019-02-15T15:35:29.783Z,30.90
2019-02-15T15:37:58.749Z,31.10
2019-02-15T15:40:27.724Z,31.40
2019-02-15T15:42:56.799Z,31.60
2019-02-15T15:45:25.884Z,31.60
2019-02-15T15:47:54.706Z,31.80
2019-02-15T15:50:23.632Z,32.40
2019-02-15T15:52:55.448Z,33.20
2019-02-15T15:55:24.475Z,33.60
2019-02-15T15:57:53.544Z,34.50
2019-02-15T16:00:24.865Z,35.40
2019-02-15T16:02:54.135Z,36.00
2019-02-15T16:05:23.193Z,36.90
2019-02-15T16:07:52.287Z,37.70
2019-02-15T16:10:21.244Z,37.90
2019-02-15T16:12:50.304Z,39.20
2019-02-15T16:15:19.521Z,39.30
2019-02-15T16:17:48.636Z,40.00
2019-02-15T16:20:20.707Z,40.50
2019-02-15T16:22:49.864Z,40.20
2019-02-15T16:25:20.611Z,40.40
2019-02-15T16:27:52.516Z,41.90
2019-02-15T16:30:21.542Z,43.20
2019-02-15T16:32:50.554Z,42.70
2019-02-15T16:35:19.530Z,43.30
2019-02-15T16:37:49.091Z,43.70
2019-02-15T16:40:18.493Z,44.80
2019-02-15T16:42:47.544Z,44.40
2019-02-15T16:45:16.507Z,44.70
2019-02-15T16:47:45.786Z,45.40
2019-02-15T16:50:14.943Z,46.30
2019-02-15T16:52:44.316Z,46.30
2019-02-15T16:55:13.591Z,46.70
2019-02-15T16:57:42.645Z,47.10
2019-02-15T17:00:14.313Z,47.30
2019-02-15T17:02:43.411Z,47.80
2019-02-15T17:05:13.677Z,48.50
2019-02-15T17:07:42.589Z,48.50
2019-02-15T17:10:13.794Z,48.90
2019-02-15T17:12:42.665Z,49.40
2019-02-15T17:15:16.625Z,50.00
2019-02-15T17:17:46.032Z,50.50
2019-02-15T17:20:16.483Z,51.10
2019-02-15T17:22:45.427Z,51.00
2019-02-15T17:25:14.861Z,51.60
2019-02-15T17:27:47.897Z,52.60
2019-02-15T17:30:16.932Z,52.30
2019-02-15T17:32:45.994Z,52.80
2019-02-15T17:35:14.842Z,53.60
2019-02-15T17:37:43.962Z,53.80
2019-02-15T17:40:12.887Z,54.30
2019-02-15T17:42:41.958Z,54.70
2019-02-15T17:45:11.259Z,55.00
2019-02-15T17:47:40.275Z,55.10
2019-02-15T17:50:09.618Z,55.80
2019-02-15T17:52:38.632Z,56.40
2019-02-15T17:55:07.829Z,56.60
2019-02-15T17:57:36.947Z,57.70
2019-02-15T18:00:06.620Z,58.60
2019-02-15T18:02:35.704Z,59.00
2019-02-15T18:05:07.617Z,59.60
2019-02-15T18:07:36.510Z,60.00
2019-02-15T18:10:05.423Z,60.40
2019-02-15T18:12:34.532Z,61.40
2019-02-15T18:15:03.523Z,62.30
2019-02-15T18:17:32.678Z,63.10
2019-02-15T18:20:01.727Z,64.70
2019-02-15T18:22:30.588Z,65.70
2019-02-15T18:24:59.791Z,66.10
2019-02-15T18:27:28.923Z,66.90
2019-02-15T18:29:58.177Z,67.90
2019-02-15T18:32:27.304Z,68.70
2019-02-15T18:34:56.208Z,69.20
2019-02-15T18:37:25.156Z,73.10
2019-02-15T18:39:54.070Z,75.10
2019-02-15T18:42:23.278Z,75.40
2019-02-15T18:44:52.318Z,76.90
2019-02-15T18:47:21.343Z,78.10
2019-02-15T18:49:50.526Z,78.10
2019-02-15T18:52:19.680Z,78.40
2019-02-15T18:54:48.716Z,79.50
2019-02-15T18:57:17.714Z,81.30
2019-02-15T18:59:46.693Z,82.30
2019-02-15T19:02:15.549Z,83.20
2019-02-15T19:04:44.475Z,83.80
2019-02-15T19:07:13.429Z,85.30
2019-02-15T19:09:45.276Z,85.40
2019-02-15T19:12:16.871Z,85.50
2019-02-15T19:14:45.762Z,85.40
2019-02-15T19:17:14.890Z,85.70
2019-02-15T19:19:45.141Z,85.60
2019-02-15T19:22:14.315Z,85.60
2019-02-15T19:24:43.372Z,84.40
2019-02-15T19:27:12.414Z,85.60
2019-02-15T19:29:41.588Z,85.40
2019-02-15T19:32:10.534Z,85.10
2019-02-15T19:34:39.482Z,85.40
2019-02-15T19:37:08.476Z,85.50
2019-02-15T19:39:37.376Z,85.40
2019-02-15T19:42:11.429Z,84.70
2019-02-15T19:44:40.422Z,84.90
2019-02-15T19:47:09.490Z,85.40
2019-02-15T19:49:39.171Z,85.30
2019-02-15T19:52:08.182Z,84.60
2019-02-15T19:54:37.321Z,85.30
2019-02-15T19:57:06.180Z,85.60
2019-02-15T19:59:35.386Z,86.00
2019-02-15T20:02:06.587Z,86.60
2019-02-15T20:04:35.546Z,85.70
2019-02-15T20:07:04.725Z,85.00
2019-02-15T20:09:33.966Z,85.20
2019-02-15T20:12:03.405Z,85.10
2019-02-15T20:14:34.503Z,85.70
2019-02-15T20:17:03.456Z,85.90
2019-02-15T20:19:33.479Z,86.20
2019-02-15T20:22:21.818Z,86.10
2019-02-15T20:24:55.359Z,86.80
2019-02-15T20:27:23.839Z,87.50
2019-02-15T20:29:55.142Z,87.80
2019-02-15T20:32:25.212Z,89.20
2019-02-15T20:34:54.289Z,89.60
2019-02-15T20:37:26.251Z,90.00
2019-02-15T20:39:55.374Z,90.60
2019-02-15T20:42:24.516Z,91.10
2019-02-15T20:44:53.442Z,91.10
2019-02-15T20:47:22.600Z,91.20
2019-02-15T20:49:57.676Z,91.60
2019-02-15T20:52:22.510Z,91.60
2019-02-15T20:54:51.500Z,92.10
2019-02-15T20:57:20.529Z,92.40
2019-02-15T20:59:49.591Z,92.80
2019-02-15T21:02:20.396Z,93.10
2019-02-15T21:04:49.218Z,93.70
2019-02-15T21:07:18.648Z,94.20
2019-02-15T21:09:47.713Z,94.70
2019-02-15T21:12:16.860Z,95.00
2019-02-15T21:14:46.133Z,95.40
2019-02-15T21:17:15.480Z,95.50
2019-02-15T21:19:44.405Z,95.60
2019-02-15T21:22:13.649Z,95.80
2019-02-15T21:24:42.971Z,96.50
2019-02-15T21:27:15.003Z,96.90
2019-02-15T21:29:43.873Z,96.70
2019-02-15T21:32:12.980Z,96.80
2019-02-15T21:34:42.458Z,96.70
2019-02-15T21:37:11.445Z,96.60
2019-02-15T21:39:43.554Z,96.90
2019-02-15T21:42:12.549Z,97.10
2019-02-15T21:44:41.635Z,97.60
2019-02-15T21:47:10.659Z,97.70
2019-02-15T21:49:39.971Z,97.70
2019-02-15T21:52:09.257Z,97.70
2019-02-15T21:54:38.320Z,98.30
2019-02-15T21:57:07.229Z,98.50
2019-02-15T21:59:36.305Z,98.70
2019-02-15T22:02:05.907Z,98.90
2019-02-15T22:04:34.999Z,99.30
2019-02-15T22:07:04.061Z,99.90
2019-02-15T22:09:34.442Z,99.90
2019-02-15T22:12:03.570Z,99.90
2019-02-15T22:14:51.955Z,99.90
2019-02-15T22:17:21.490Z,99.90
2019-02-15T22:19:50.355Z,99.90
2019-02-15T22:22:19.477Z,99.90
2019-02-15T22:24:48.359Z,99.90
2019-02-15T22:27:17.315Z,99.90
2019-02-15T22:29:46.328Z,99.90
2019-02-15T22:32:15.433Z,99.90
2019-02-15T22:34:44.354Z,99.90
2019-02-15T22:37:13.597Z,99.90
2019-02-15T22:39:42.538Z,99.90
2019-02-15T22:42:11.617Z,99.90
2019-02-15T22:44:40.642Z,99.90
2019-02-15T22:47:09.809Z,99.90
2019-02-15T22:49:43.377Z,99.90
2019-02-15T22:52:14.171Z,99.90
2019-02-15T22:54:43.358Z,99.90
2019-02-15T22:57:12.361Z,99.90
2019-02-15T22:59:41.357Z,99.90
2019-02-15T23:02:12.075Z,99.90
2019-02-15T23:04:40.912Z,99.90
2019-02-15T23:07:09.929Z,99.90
2019-02-15T23:09:39.158Z,99.90
2019-02-15T23:12:11.278Z,99.90
2019-02-15T23:14:40.337Z,99.90
2019-02-15T23:17:12.441Z,99.90
2019-02-15T23:19:41.536Z,99.90
2019-02-15T23:22:10.623Z,99.90
2019-02-15T23:24:39.727Z,99.90
2019-02-15T23:27:11.823Z,99.90
2019-02-15T23:29:42.894Z,99.90
2019-02-15T23:32:11.994Z,99.90
2019-02-15T23:34:40.914Z,99.90
2019-02-15T23:37:09.776Z,99.90
2019-02-15T23:39:38.780Z,99.90
2019-02-15T23:42:07.777Z,99.90
2019-02-15T23:44:36.632Z,99.90
2019-02-15T23:47:05.554Z,99.90
2019-02-15T23:49:34.384Z,99.90
2019-02-15T23:52:03.333Z,99.90
2019-02-15T23:54:32.309Z,99.90
2019-02-15T23:57:01.186Z,99.90
2019-02-15T23:59:30.037Z,99.90
